sensor_id;sensor_type;location;lat;lon;timestamp;temperature;humidity
37460;DHT22;23318;50.966;5.284;2023-05-07T00:00:00;16.30;99.90
37460;DHT22;23318;50.966;5.284;2023-05-07T00:02:26;16.40;99.90
37460;DHT22;23318;50.966;5.284;2023-05-07T00:04:52;16.50;99.90
37460;DHT22;23318;50.966;5.284;2023-05-07T00:07:18;16.50;99.90
37460;DHT22;23318;50.966;5.284;2023-05-07T00:09:43;16.60;99.90
37460;DHT22;23318;50.966;5.284;2023-05-07T00:12:09;16.70;99.90
37460;DHT22;23318;50.966;5.284;2023-05-07T00:14:35;16.60;99.90
37460;DHT22;23318;50.966;5.284;2023-05-07T00:17:01;16.60;99.90
37460;DHT22;23318;50.966;5.284;2023-05-07T00:19:27;16.60;99.90
37460;DHT22;23318;50.966;5.284;2023-05-07T00:21:53;16.70;99.90
37460;DHT22;23318;50.966;5.284;2023-05-07T00:24:19;16.60;99.90
37460;DHT22;23318;50.966;5.284;2023-05-07T00:26:45;16.70;99.90
37460;DHT22;23318;50.966;5.284;2023-05-07T00:29:10;16.70;99.90
37460;DHT22;23318;50.966;5.284;2023-05-07T00:31:36;16.80;99.90
37460;DHT22;23318;50.966;5.284;2023-05-07T00:34:02;16.80;99.90
37460;DHT22;23318;50.966;5.284;2023-05-07T00:36:27;16.80;99.90
37460;DHT22;23318;50.966;5.284;2023-05-07T00:38:56;16.90;99.90
37460;DHT22;23318;50.966;5.284;2023-05-07T00:41:22;16.90;99.90
37460;DHT22;23318;50.966;5.284;2023-05-07T00:43:48;17.00;99.90
37460;DHT22;23318;50.966;5.284;2023-05-07T00:46:17;16.90;99.90
37460;DHT22;23318;50.966;5.284;2023-05-07T00:48:43;16.90;99.90
37460;DHT22;23318;50.966;5.284;2023-05-07T00:51:10;16.90;99.90
37460;DHT22;23318;50.966;5.284;2023-05-07T00:53:37;17.00;99.90
37460;DHT22;23318;50.966;5.284;2023-05-07T00:56:03;17.00;99.90
37460;DHT22;23318;50.966;5.284;2023-05-07T00:58:29;17.00;99.90
37460;DHT22;23318;50.966;5.284;2023-05-07T01:00:54;17.00;99.90
37460;DHT22;23318;50.966;5.284;2023-05-07T01:03:21;16.90;99.90
37460;DHT22;23318;50.966;5.284;2023-05-07T01:05:47;17.00;99.90
37460;DHT22;23318;50.966;5.284;2023-05-07T01:08:14;17.00;99.90
37460;DHT22;23318;50.966;5.284;2023-05-07T01:10:41;17.00;99.90
37460;DHT22;23318;50.966;5.284;2023-05-07T01:13:09;17.00;99.90
37460;DHT22;23318;50.966;5.284;2023-05-07T01:15:36;17.00;99.90
37460;DHT22;23318;50.966;5.284;2023-05-07T01:18:02;17.00;99.90
37460;DHT22;23318;50.966;5.284;2023-05-07T01:20:28;16.90;99.90
37460;DHT22;23318;50.966;5.284;2023-05-07T01:22:54;16.90;99.90
37460;DHT22;23318;50.966;5.284;2023-05-07T01:25:21;16.90;99.90
37460;DHT22;23318;50.966;5.284;2023-05-07T01:27:47;16.90;99.90
37460;DHT22;23318;50.966;5.284;2023-05-07T01:30:13;16.80;99.90
37460;DHT22;23318;50.966;5.284;2023-05-07T01:33:04;16.80;99.90
37460;DHT22;23318;50.966;5.284;2023-05-07T01:35:35;16.70;99.90
37460;DHT22;23318;50.966;5.284;2023-05-07T01:38:03;16.70;99.90
37460;DHT22;23318;50.966;5.284;2023-05-07T01:40:31;16.70;99.90
37460;DHT22;23318;50.966;5.284;2023-05-07T01:42:57;16.70;99.90
37460;DHT22;23318;50.966;5.284;2023-05-07T01:45:23;16.80;99.90
37460;DHT22;23318;50.966;5.284;2023-05-07T01:47:49;16.70;99.90
37460;DHT22;23318;50.966;5.284;2023-05-07T01:50:17;16.70;99.90
37460;DHT22;23318;50.966;5.284;2023-05-07T01:52:43;16.70;99.90
37460;DHT22;23318;50.966;5.284;2023-05-07T01:55:09;16.80;99.90
37460;DHT22;23318;50.966;5.284;2023-05-07T01:57:35;16.80;99.90
37460;DHT22;23318;50.966;5.284;2023-05-07T02:00:02;16.70;99.90
37460;DHT22;23318;50.966;5.284;2023-05-07T02:02:31;16.70;99.90
37460;DHT22;23318;50.966;5.284;2023-05-07T02:04:57;16.60;99.90
37460;DHT22;23318;50.966;5.284;2023-05-07T02:07:23;16.60;99.90
37460;DHT22;23318;50.966;5.284;2023-05-07T02:09:48;16.60;99.90
37460;DHT22;23318;50.966;5.284;2023-05-07T02:12:14;16.60;99.90
37460;DHT22;23318;50.966;5.284;2023-05-07T02:14:40;16.60;99.90
37460;DHT22;23318;50.966;5.284;2023-05-07T02:17:05;16.60;99.90
37460;DHT22;23318;50.966;5.284;2023-05-07T02:19:31;16.70;99.90
37460;DHT22;23318;50.966;5.284;2023-05-07T02:21:57;16.70;99.90
37460;DHT22;23318;50.966;5.284;2023-05-07T02:24:22;16.70;99.90
37460;DHT22;23318;50.966;5.284;2023-05-07T02:26:48;16.70;99.90
37460;DHT22;23318;50.966;5.284;2023-05-07T02:29:13;16.80;99.90
37460;DHT22;23318;50.966;5.284;2023-05-07T02:31:39;16.80;99.90
37460;DHT22;23318;50.966;5.284;2023-05-07T02:34:05;16.80;99.90
37460;DHT22;23318;50.966;5.284;2023-05-07T02:36:31;16.50;99.90
37460;DHT22;23318;50.966;5.284;2023-05-07T02:38:56;16.50;99.90
37460;DHT22;23318;50.966;5.284;2023-05-07T02:41:22;16.60;99.90
37460;DHT22;23318;50.966;5.284;2023-05-07T02:43:48;16.80;99.90
37460;DHT22;23318;50.966;5.284;2023-05-07T02:46:13;16.80;99.90
37460;DHT22;23318;50.966;5.284;2023-05-07T02:48:39;16.80;99.90
37460;DHT22;23318;50.966;5.284;2023-05-07T02:51:05;16.80;99.90
37460;DHT22;23318;50.966;5.284;2023-05-07T02:53:31;16.80;99.90
37460;DHT22;23318;50.966;5.284;2023-05-07T02:55:58;16.90;99.90
37460;DHT22;23318;50.966;5.284;2023-05-07T02:58:24;16.90;99.90
37460;DHT22;23318;50.966;5.284;2023-05-07T03:00:49;16.90;99.90
37460;DHT22;23318;50.966;5.284;2023-05-07T03:03:15;16.60;99.90
37460;DHT22;23318;50.966;5.284;2023-05-07T03:05:41;16.60;99.90
37460;DHT22;23318;50.966;5.284;2023-05-07T03:08:07;16.60;99.90
37460;DHT22;23318;50.966;5.284;2023-05-07T03:10:33;16.60;99.90
37460;DHT22;23318;50.966;5.284;2023-05-07T03:12:59;16.60;99.90
37460;DHT22;23318;50.966;5.284;2023-05-07T03:15:25;16.50;99.90
37460;DHT22;23318;50.966;5.284;2023-05-07T03:17:50;16.60;99.90
37460;DHT22;23318;50.966;5.284;2023-05-07T03:20:16;16.60;99.90
37460;DHT22;23318;50.966;5.284;2023-05-07T03:22:42;16.60;99.90
37460;DHT22;23318;50.966;5.284;2023-05-07T03:25:08;16.60;99.90
37460;DHT22;23318;50.966;5.284;2023-05-07T03:27:34;16.60;99.90
37460;DHT22;23318;50.966;5.284;2023-05-07T03:30:00;16.60;99.90
37460;DHT22;23318;50.966;5.284;2023-05-07T03:32:26;16.70;99.90
37460;DHT22;23318;50.966;5.284;2023-05-07T03:34:52;16.80;99.90
37460;DHT22;23318;50.966;5.284;2023-05-07T03:37:18;16.70;99.90
37460;DHT22;23318;50.966;5.284;2023-05-07T03:39:44;16.60;99.90
37460;DHT22;23318;50.966;5.284;2023-05-07T03:42:09;16.50;99.90
37460;DHT22;23318;50.966;5.284;2023-05-07T03:44:35;16.50;99.90
37460;DHT22;23318;50.966;5.284;2023-05-07T03:47:04;16.50;99.90
37460;DHT22;23318;50.966;5.284;2023-05-07T03:49:30;16.40;99.90
37460;DHT22;23318;50.966;5.284;2023-05-07T03:51:55;16.30;99.90
37460;DHT22;23318;50.966;5.284;2023-05-07T03:54:22;16.30;99.90
37460;DHT22;23318;50.966;5.284;2023-05-07T03:56:47;16.40;99.90
37460;DHT22;23318;50.966;5.284;2023-05-07T03:59:13;16.30;99.90
37460;DHT22;23318;50.966;5.284;2023-05-07T04:01:39;16.40;99.90
37460;DHT22;23318;50.966;5.284;2023-05-07T04:04:05;16.30;99.90
37460;DHT22;23318;50.966;5.284;2023-05-07T04:06:31;16.40;99.90
37460;DHT22;23318;50.966;5.284;2023-05-07T04:08:57;16.40;99.90
37460;DHT22;23318;50.966;5.284;2023-05-07T04:11:23;16.30;99.90
37460;DHT22;23318;50.966;5.284;2023-05-07T04:13:48;16.30;99.90
37460;DHT22;23318;50.966;5.284;2023-05-07T04:16:14;16.30;99.90
37460;DHT22;23318;50.966;5.284;2023-05-07T04:18:40;16.30;99.90
37460;DHT22;23318;50.966;5.284;2023-05-07T04:21:11;16.50;99.90
37460;DHT22;23318;50.966;5.284;2023-05-07T04:23:39;16.50;99.90
37460;DHT22;23318;50.966;5.284;2023-05-07T04:26:04;16.50;99.90
37460;DHT22;23318;50.966;5.284;2023-05-07T04:28:31;16.40;99.90
37460;DHT22;23318;50.966;5.284;2023-05-07T04:30:57;16.40;99.90
37460;DHT22;23318;50.966;5.284;2023-05-07T04:33:23;16.50;99.90
37460;DHT22;23318;50.966;5.284;2023-05-07T04:35:48;16.40;99.90
37460;DHT22;23318;50.966;5.284;2023-05-07T04:38:14;16.40;99.90
37460;DHT22;23318;50.966;5.284;2023-05-07T04:40:40;16.40;99.90
37460;DHT22;23318;50.966;5.284;2023-05-07T04:43:06;16.40;99.90
37460;DHT22;23318;50.966;5.284;2023-05-07T04:45:35;16.40;99.90
37460;DHT22;23318;50.966;5.284;2023-05-07T04:48:00;16.40;99.90
37460;DHT22;23318;50.966;5.284;2023-05-07T04:50:26;16.40;99.90
37460;DHT22;23318;50.966;5.284;2023-05-07T04:52:52;16.40;99.90
37460;DHT22;23318;50.966;5.284;2023-05-07T04:55:18;16.50;99.90
37460;DHT22;23318;50.966;5.284;2023-05-07T04:57:43;16.50;99.90
37460;DHT22;23318;50.966;5.284;2023-05-07T05:00:09;16.60;99.90
37460;DHT22;23318;50.966;5.284;2023-05-07T05:02:35;16.60;99.90
37460;DHT22;23318;50.966;5.284;2023-05-07T05:05:01;16.70;99.90
37460;DHT22;23318;50.966;5.284;2023-05-07T05:07:28;16.70;99.90
37460;DHT22;23318;50.966;5.284;2023-05-07T05:09:54;16.60;99.90
37460;DHT22;23318;50.966;5.284;2023-05-07T05:12:20;16.50;99.90
37460;DHT22;23318;50.966;5.284;2023-05-07T05:14:46;16.50;99.90
37460;DHT22;23318;50.966;5.284;2023-05-07T05:17:12;16.70;99.90
37460;DHT22;23318;50.966;5.284;2023-05-07T05:19:38;17.00;99.90
37460;DHT22;23318;50.966;5.284;2023-05-07T05:22:03;17.20;99.90
37460;DHT22;23318;50.966;5.284;2023-05-07T05:24:30;17.30;99.90
37460;DHT22;23318;50.966;5.284;2023-05-07T05:26:56;17.40;99.90
37460;DHT22;23318;50.966;5.284;2023-05-07T05:29:21;17.40;99.90
37460;DHT22;23318;50.966;5.284;2023-05-07T05:31:47;17.10;99.90
37460;DHT22;23318;50.966;5.284;2023-05-07T05:34:13;17.30;99.90
37460;DHT22;23318;50.966;5.284;2023-05-07T05:36:39;17.30;99.90
37460;DHT22;23318;50.966;5.284;2023-05-07T05:39:05;17.40;99.90
37460;DHT22;23318;50.966;5.284;2023-05-07T05:41:31;17.50;99.90
37460;DHT22;23318;50.966;5.284;2023-05-07T05:43:56;17.60;99.90
37460;DHT22;23318;50.966;5.284;2023-05-07T05:46:22;17.60;99.90
37460;DHT22;23318;50.966;5.284;2023-05-07T05:48:48;17.70;99.90
37460;DHT22;23318;50.966;5.284;2023-05-07T05:51:13;17.80;99.90
37460;DHT22;23318;50.966;5.284;2023-05-07T05:53:39;17.90;99.90
37460;DHT22;23318;50.966;5.284;2023-05-07T05:56:05;18.00;99.90
37460;DHT22;23318;50.966;5.284;2023-05-07T05:58:31;17.90;99.90
37460;DHT22;23318;50.966;5.284;2023-05-07T06:00:57;18.00;99.90
37460;DHT22;23318;50.966;5.284;2023-05-07T06:03:23;18.00;99.90
37460;DHT22;23318;50.966;5.284;2023-05-07T06:05:49;18.00;99.90
37460;DHT22;23318;50.966;5.284;2023-05-07T06:08:14;18.10;99.90
37460;DHT22;23318;50.966;5.284;2023-05-07T06:10:41;18.10;99.90
37460;DHT22;23318;50.966;5.284;2023-05-07T06:13:06;18.20;99.90
37460;DHT22;23318;50.966;5.284;2023-05-07T06:15:32;18.40;99.90
37460;DHT22;23318;50.966;5.284;2023-05-07T06:17:58;18.60;99.90
37460;DHT22;23318;50.966;5.284;2023-05-07T06:20:23;18.60;99.90
37460;DHT22;23318;50.966;5.284;2023-05-07T06:22:49;18.60;99.90
37460;DHT22;23318;50.966;5.284;2023-05-07T06:25:15;18.60;99.90
37460;DHT22;23318;50.966;5.284;2023-05-07T06:27:40;18.60;99.90
37460;DHT22;23318;50.966;5.284;2023-05-07T06:30:07;18.70;99.90
37460;DHT22;23318;50.966;5.284;2023-05-07T06:32:33;18.60;99.90
37460;DHT22;23318;50.966;5.284;2023-05-07T06:34:59;18.60;99.90
37460;DHT22;23318;50.966;5.284;2023-05-07T06:37:24;18.60;99.90
37460;DHT22;23318;50.966;5.284;2023-05-07T06:39:50;18.70;99.90
37460;DHT22;23318;50.966;5.284;2023-05-07T06:42:16;18.80;99.90
37460;DHT22;23318;50.966;5.284;2023-05-07T06:44:41;18.90;99.90
37460;DHT22;23318;50.966;5.284;2023-05-07T06:47:07;18.90;99.90
37460;DHT22;23318;50.966;5.284;2023-05-07T06:49:33;19.00;99.90
37460;DHT22;23318;50.966;5.284;2023-05-07T06:51:59;19.20;99.90
37460;DHT22;23318;50.966;5.284;2023-05-07T06:54:25;19.10;99.90
37460;DHT22;23318;50.966;5.284;2023-05-07T06:56:50;19.00;99.90
37460;DHT22;23318;50.966;5.284;2023-05-07T06:59:16;19.00;99.90
37460;DHT22;23318;50.966;5.284;2023-05-07T07:01:42;19.10;99.90
37460;DHT22;23318;50.966;5.284;2023-05-07T07:04:07;19.40;99.90
37460;DHT22;23318;50.966;5.284;2023-05-07T07:06:33;19.60;99.90
37460;DHT22;23318;50.966;5.284;2023-05-07T07:08:59;19.30;99.90
37460;DHT22;23318;50.966;5.284;2023-05-07T07:11:25;19.70;99.90
37460;DHT22;23318;50.966;5.284;2023-05-07T07:13:51;19.70;99.90
37460;DHT22;23318;50.966;5.284;2023-05-07T07:16:16;20.20;99.90
37460;DHT22;23318;50.966;5.284;2023-05-07T07:18:42;20.60;99.90
37460;DHT22;23318;50.966;5.284;2023-05-07T07:21:08;20.70;99.90
37460;DHT22;23318;50.966;5.284;2023-05-07T07:23:33;20.90;99.90
37460;DHT22;23318;50.966;5.284;2023-05-07T07:25:59;20.50;99.90
37460;DHT22;23318;50.966;5.284;2023-05-07T07:28:25;20.80;99.90
37460;DHT22;23318;50.966;5.284;2023-05-07T07:30:51;21.00;99.90
37460;DHT22;23318;50.966;5.284;2023-05-07T07:33:16;21.20;99.90
37460;DHT22;23318;50.966;5.284;2023-05-07T07:35:42;21.20;99.90
37460;DHT22;23318;50.966;5.284;2023-05-07T07:38:08;21.20;99.90
37460;DHT22;23318;50.966;5.284;2023-05-07T07:40:36;21.20;99.90
37460;DHT22;23318;50.966;5.284;2023-05-07T07:43:02;21.10;99.90
37460;DHT22;23318;50.966;5.284;2023-05-07T07:45:28;21.20;99.90
37460;DHT22;23318;50.966;5.284;2023-05-07T07:47:54;21.40;99.90
37460;DHT22;23318;50.966;5.284;2023-05-07T07:50:20;21.50;99.90
37460;DHT22;23318;50.966;5.284;2023-05-07T07:52:46;20.90;99.90
37460;DHT22;23318;50.966;5.284;2023-05-07T07:55:11;20.10;99.90
37460;DHT22;23318;50.966;5.284;2023-05-07T07:57:37;20.20;99.90
37460;DHT22;23318;50.966;5.284;2023-05-07T08:00:03;21.10;99.90
37460;DHT22;23318;50.966;5.284;2023-05-07T08:02:29;21.10;99.90
37460;DHT22;23318;50.966;5.284;2023-05-07T08:04:55;21.60;99.90
37460;DHT22;23318;50.966;5.284;2023-05-07T08:07:21;22.20;99.90
37460;DHT22;23318;50.966;5.284;2023-05-07T08:09:48;22.00;99.90
37460;DHT22;23318;50.966;5.284;2023-05-07T08:12:14;21.60;99.90
37460;DHT22;23318;50.966;5.284;2023-05-07T08:14:40;21.30;99.90
37460;DHT22;23318;50.966;5.284;2023-05-07T08:17:06;21.50;99.90
37460;DHT22;23318;50.966;5.284;2023-05-07T08:19:32;21.00;99.90
37460;DHT22;23318;50.966;5.284;2023-05-07T08:21:58;20.90;99.90
37460;DHT22;23318;50.966;5.284;2023-05-07T08:24:23;20.90;99.90
37460;DHT22;23318;50.966;5.284;2023-05-07T08:26:49;20.90;99.90
37460;DHT22;23318;50.966;5.284;2023-05-07T08:29:15;21.30;99.90
37460;DHT22;23318;50.966;5.284;2023-05-07T08:31:41;20.80;99.90
37460;DHT22;23318;50.966;5.284;2023-05-07T08:34:07;21.40;99.90
37460;DHT22;23318;50.966;5.284;2023-05-07T08:36:32;22.00;99.90
37460;DHT22;23318;50.966;5.284;2023-05-07T08:38:59;22.10;99.90
37460;DHT22;23318;50.966;5.284;2023-05-07T08:41:25;23.00;99.90
37460;DHT22;23318;50.966;5.284;2023-05-07T08:43:51;22.70;99.90
37460;DHT22;23318;50.966;5.284;2023-05-07T08:46:19;23.00;99.90
37460;DHT22;23318;50.966;5.284;2023-05-07T08:48:47;22.60;99.90
37460;DHT22;23318;50.966;5.284;2023-05-07T08:51:15;22.40;99.90
37460;DHT22;23318;50.966;5.284;2023-05-07T08:53:41;21.10;99.90
37460;DHT22;23318;50.966;5.284;2023-05-07T08:56:09;21.40;99.90
37460;DHT22;23318;50.966;5.284;2023-05-07T08:58:35;22.30;99.90
37460;DHT22;23318;50.966;5.284;2023-05-07T09:01:10;22.30;99.90
37460;DHT22;23318;50.966;5.284;2023-05-07T09:03:38;21.80;99.90
37460;DHT22;23318;50.966;5.284;2023-05-07T09:06:04;22.00;99.90
37460;DHT22;23318;50.966;5.284;2023-05-07T09:08:32;22.80;99.90
37460;DHT22;23318;50.966;5.284;2023-05-07T09:10:58;21.60;99.90
37460;DHT22;23318;50.966;5.284;2023-05-07T09:13:24;21.50;99.90
37460;DHT22;23318;50.966;5.284;2023-05-07T09:15:50;21.10;99.90
37460;DHT22;23318;50.966;5.284;2023-05-07T09:18:16;21.30;99.90
37460;DHT22;23318;50.966;5.284;2023-05-07T09:20:42;21.10;99.90
37460;DHT22;23318;50.966;5.284;2023-05-07T09:23:08;21.80;99.90
37460;DHT22;23318;50.966;5.284;2023-05-07T09:25:35;21.90;99.90
37460;DHT22;23318;50.966;5.284;2023-05-07T09:28:02;22.70;99.90
37460;DHT22;23318;50.966;5.284;2023-05-07T09:30:32;23.80;99.90
37460;DHT22;23318;50.966;5.284;2023-05-07T09:32:59;23.30;99.90
37460;DHT22;23318;50.966;5.284;2023-05-07T09:35:25;23.70;99.90
37460;DHT22;23318;50.966;5.284;2023-05-07T09:37:59;23.30;99.90
37460;DHT22;23318;50.966;5.284;2023-05-07T09:40:28;23.20;99.90
37460;DHT22;23318;50.966;5.284;2023-05-07T09:42:54;23.40;99.90
37460;DHT22;23318;50.966;5.284;2023-05-07T09:45:27;23.40;99.90
37460;DHT22;23318;50.966;5.284;2023-05-07T09:47:57;22.90;99.90
37460;DHT22;23318;50.966;5.284;2023-05-07T09:50:32;22.70;99.90
37460;DHT22;23318;50.966;5.284;2023-05-07T09:53:01;21.70;99.90
37460;DHT22;23318;50.966;5.284;2023-05-07T09:55:28;21.90;99.90
37460;DHT22;23318;50.966;5.284;2023-05-07T09:57:54;21.90;99.90
37460;DHT22;23318;50.966;5.284;2023-05-07T10:00:22;22.00;99.90
37460;DHT22;23318;50.966;5.284;2023-05-07T10:02:49;21.90;99.90
37460;DHT22;23318;50.966;5.284;2023-05-07T10:05:20;21.20;99.90
37460;DHT22;23318;50.966;5.284;2023-05-07T10:07:47;20.60;99.90
37460;DHT22;23318;50.966;5.284;2023-05-07T10:10:14;20.70;99.90
37460;DHT22;23318;50.966;5.284;2023-05-07T10:12:41;20.70;99.90
37460;DHT22;23318;50.966;5.284;2023-05-07T10:15:09;20.40;99.90
37460;DHT22;23318;50.966;5.284;2023-05-07T10:17:37;20.10;99.90
37460;DHT22;23318;50.966;5.284;2023-05-07T10:20:04;20.40;99.90
37460;DHT22;23318;50.966;5.284;2023-05-07T10:22:38;20.30;99.90
37460;DHT22;23318;50.966;5.284;2023-05-07T10:25:08;20.30;99.90
37460;DHT22;23318;50.966;5.284;2023-05-07T10:27:40;20.40;99.90
37460;DHT22;23318;50.966;5.284;2023-05-07T10:30:40;20.30;99.90
37460;DHT22;23318;50.966;5.284;2023-05-07T10:33:13;20.50;99.90
37460;DHT22;23318;50.966;5.284;2023-05-07T10:35:45;20.00;99.90
37460;DHT22;23318;50.966;5.284;2023-05-07T10:38:12;19.90;99.90
37460;DHT22;23318;50.966;5.284;2023-05-07T10:40:38;19.90;99.90
37460;DHT22;23318;50.966;5.284;2023-05-07T10:43:04;19.60;99.90
37460;DHT22;23318;50.966;5.284;2023-05-07T10:45:31;19.50;99.90
37460;DHT22;23318;50.966;5.284;2023-05-07T10:48:15;19.70;99.90
37460;DHT22;23318;50.966;5.284;2023-05-07T10:50:45;19.60;99.90
37460;DHT22;23318;50.966;5.284;2023-05-07T10:56:07;19.50;99.90
37460;DHT22;23318;50.966;5.284;2023-05-07T10:58:37;19.50;99.90
37460;DHT22;23318;50.966;5.284;2023-05-07T11:01:03;19.20;99.90
37460;DHT22;23318;50.966;5.284;2023-05-07T11:03:29;19.40;99.90
37460;DHT22;23318;50.966;5.284;2023-05-07T11:06:11;19.70;99.90
37460;DHT22;23318;50.966;5.284;2023-05-07T11:11:19;19.20;99.90
37460;DHT22;23318;50.966;5.284;2023-05-07T11:13:48;19.50;99.90
37460;DHT22;23318;50.966;5.284;2023-05-07T11:16:24;19.40;99.90
37460;DHT22;23318;50.966;5.284;2023-05-07T11:18:52;19.10;99.90
37460;DHT22;23318;50.966;5.284;2023-05-07T11:21:36;19.00;99.90
37460;DHT22;23318;50.966;5.284;2023-05-07T11:24:04;18.70;99.90
37460;DHT22;23318;50.966;5.284;2023-05-07T11:26:44;18.80;99.90
37460;DHT22;23318;50.966;5.284;2023-05-07T11:29:20;18.70;99.90
37460;DHT22;23318;50.966;5.284;2023-05-07T11:31:52;18.70;99.90
37460;DHT22;23318;50.966;5.284;2023-05-07T11:34:23;18.50;99.90
37460;DHT22;23318;50.966;5.284;2023-05-07T11:36:49;18.30;99.90
37460;DHT22;23318;50.966;5.284;2023-05-07T11:39:25;18.20;99.90
37460;DHT22;23318;50.966;5.284;2023-05-07T11:41:51;18.00;99.90
37460;DHT22;23318;50.966;5.284;2023-05-07T11:44:17;18.00;99.90
37460;DHT22;23318;50.966;5.284;2023-05-07T11:46:43;17.90;99.90
37460;DHT22;23318;50.966;5.284;2023-05-07T11:49:10;17.80;99.90
37460;DHT22;23318;50.966;5.284;2023-05-07T11:51:35;17.90;99.90
37460;DHT22;23318;50.966;5.284;2023-05-07T11:54:03;17.90;99.90
37460;DHT22;23318;50.966;5.284;2023-05-07T11:56:33;17.80;99.90
37460;DHT22;23318;50.966;5.284;2023-05-07T11:58:59;17.80;99.90
37460;DHT22;23318;50.966;5.284;2023-05-07T12:01:25;17.80;99.90
37460;DHT22;23318;50.966;5.284;2023-05-07T12:03:50;18.00;99.90
37460;DHT22;23318;50.966;5.284;2023-05-07T12:06:16;18.10;99.90
37460;DHT22;23318;50.966;5.284;2023-05-07T12:08:43;18.20;99.90
37460;DHT22;23318;50.966;5.284;2023-05-07T12:11:14;18.20;99.90
37460;DHT22;23318;50.966;5.284;2023-05-07T12:13:41;18.10;99.90
37460;DHT22;23318;50.966;5.284;2023-05-07T12:16:07;18.20;99.90
37460;DHT22;23318;50.966;5.284;2023-05-07T12:18:34;18.50;99.90
37460;DHT22;23318;50.966;5.284;2023-05-07T12:21:01;18.30;99.90
37460;DHT22;23318;50.966;5.284;2023-05-07T12:23:27;18.50;99.90
37460;DHT22;23318;50.966;5.284;2023-05-07T12:25:53;18.40;99.90
37460;DHT22;23318;50.966;5.284;2023-05-07T12:28:19;18.10;99.90
37460;DHT22;23318;50.966;5.284;2023-05-07T12:30:46;18.10;99.90
37460;DHT22;23318;50.966;5.284;2023-05-07T12:33:16;18.20;99.90
37460;DHT22;23318;50.966;5.284;2023-05-07T12:35:43;18.20;99.90
37460;DHT22;23318;50.966;5.284;2023-05-07T12:38:13;18.10;99.90
37460;DHT22;23318;50.966;5.284;2023-05-07T12:40:41;18.20;99.90
37460;DHT22;23318;50.966;5.284;2023-05-07T12:43:08;18.60;99.90
37460;DHT22;23318;50.966;5.284;2023-05-07T12:45:41;18.50;99.90
37460;DHT22;23318;50.966;5.284;2023-05-07T12:48:09;18.40;99.90
37460;DHT22;23318;50.966;5.284;2023-05-07T12:50:35;18.40;99.90
37460;DHT22;23318;50.966;5.284;2023-05-07T12:53:03;18.70;99.90
37460;DHT22;23318;50.966;5.284;2023-05-07T12:55:32;18.80;99.90
37460;DHT22;23318;50.966;5.284;2023-05-07T12:58:01;18.70;99.90
37460;DHT22;23318;50.966;5.284;2023-05-07T13:00:37;18.90;99.90
37460;DHT22;23318;50.966;5.284;2023-05-07T13:03:03;19.10;99.90
37460;DHT22;23318;50.966;5.284;2023-05-07T13:05:29;19.00;99.90
37460;DHT22;23318;50.966;5.284;2023-05-07T13:07:58;18.90;99.90
37460;DHT22;23318;50.966;5.284;2023-05-07T13:10:23;19.10;99.90
37460;DHT22;23318;50.966;5.284;2023-05-07T13:12:50;19.20;99.90
37460;DHT22;23318;50.966;5.284;2023-05-07T13:15:16;19.60;99.90
37460;DHT22;23318;50.966;5.284;2023-05-07T13:17:42;20.00;99.90
37460;DHT22;23318;50.966;5.284;2023-05-07T13:20:09;19.70;99.90
37460;DHT22;23318;50.966;5.284;2023-05-07T13:22:35;19.80;99.90
37460;DHT22;23318;50.966;5.284;2023-05-07T13:25:01;20.30;99.90
37460;DHT22;23318;50.966;5.284;2023-05-07T13:27:27;20.30;99.90
37460;DHT22;23318;50.966;5.284;2023-05-07T13:29:52;20.20;99.90
37460;DHT22;23318;50.966;5.284;2023-05-07T13:32:18;20.10;99.90
37460;DHT22;23318;50.966;5.284;2023-05-07T13:34:44;20.30;99.90
37460;DHT22;23318;50.966;5.284;2023-05-07T13:37:09;20.80;99.90
37460;DHT22;23318;50.966;5.284;2023-05-07T13:39:36;20.70;99.90
37460;DHT22;23318;50.966;5.284;2023-05-07T13:42:02;20.70;99.90
37460;DHT22;23318;50.966;5.284;2023-05-07T13:44:27;20.10;99.90
37460;DHT22;23318;50.966;5.284;2023-05-07T13:46:53;20.10;99.90
37460;DHT22;23318;50.966;5.284;2023-05-07T13:49:19;20.30;99.90
37460;DHT22;23318;50.966;5.284;2023-05-07T13:51:44;20.40;99.90
37460;DHT22;23318;50.966;5.284;2023-05-07T13:54:10;20.70;99.90
37460;DHT22;23318;50.966;5.284;2023-05-07T13:56:37;20.90;99.90
37460;DHT22;23318;50.966;5.284;2023-05-07T13:59:02;20.90;99.90
37460;DHT22;23318;50.966;5.284;2023-05-07T14:01:28;21.10;99.90
37460;DHT22;23318;50.966;5.284;2023-05-07T14:03:55;21.40;99.90
37460;DHT22;23318;50.966;5.284;2023-05-07T14:06:21;21.30;99.90
37460;DHT22;23318;50.966;5.284;2023-05-07T14:08:47;21.20;99.90
37460;DHT22;23318;50.966;5.284;2023-05-07T14:11:12;20.70;99.90
37460;DHT22;23318;50.966;5.284;2023-05-07T14:13:38;20.60;99.90
37460;DHT22;23318;50.966;5.284;2023-05-07T14:16:04;20.60;99.90
37460;DHT22;23318;50.966;5.284;2023-05-07T14:18:30;20.80;99.90
37460;DHT22;23318;50.966;5.284;2023-05-07T14:20:56;21.30;99.90
37460;DHT22;23318;50.966;5.284;2023-05-07T14:23:21;21.00;99.90
37460;DHT22;23318;50.966;5.284;2023-05-07T14:25:52;20.80;99.90
37460;DHT22;23318;50.966;5.284;2023-05-07T14:28:18;20.70;99.90
37460;DHT22;23318;50.966;5.284;2023-05-07T14:30:43;20.80;99.90
37460;DHT22;23318;50.966;5.284;2023-05-07T14:33:09;21.00;99.90
37460;DHT22;23318;50.966;5.284;2023-05-07T14:35:35;21.80;99.90
37460;DHT22;23318;50.966;5.284;2023-05-07T14:38:00;21.30;99.90
37460;DHT22;23318;50.966;5.284;2023-05-07T14:40:26;21.00;99.90
37460;DHT22;23318;50.966;5.284;2023-05-07T14:42:52;21.00;99.90
37460;DHT22;23318;50.966;5.284;2023-05-07T14:45:18;20.30;99.90
37460;DHT22;23318;50.966;5.284;2023-05-07T14:47:43;20.30;99.90
37460;DHT22;23318;50.966;5.284;2023-05-07T14:50:09;20.50;99.90
37460;DHT22;23318;50.966;5.284;2023-05-07T14:52:35;20.30;99.90
37460;DHT22;23318;50.966;5.284;2023-05-07T14:55:01;20.10;99.90
37460;DHT22;23318;50.966;5.284;2023-05-07T14:57:26;20.20;99.90
37460;DHT22;23318;50.966;5.284;2023-05-07T14:59:52;20.30;99.90
37460;DHT22;23318;50.966;5.284;2023-05-07T15:02:18;20.00;99.90
37460;DHT22;23318;50.966;5.284;2023-05-07T15:04:44;20.00;99.90
37460;DHT22;23318;50.966;5.284;2023-05-07T15:07:13;20.50;99.90
37460;DHT22;23318;50.966;5.284;2023-05-07T15:09:43;20.80;99.90
37460;DHT22;23318;50.966;5.284;2023-05-07T15:12:09;20.90;99.90
37460;DHT22;23318;50.966;5.284;2023-05-07T15:14:35;20.70;99.90
37460;DHT22;23318;50.966;5.284;2023-05-07T15:17:01;20.30;99.90
37460;DHT22;23318;50.966;5.284;2023-05-07T15:19:26;20.30;99.90
37460;DHT22;23318;50.966;5.284;2023-05-07T15:21:58;20.30;99.90
37460;DHT22;23318;50.966;5.284;2023-05-07T15:24:25;20.40;99.90
37460;DHT22;23318;50.966;5.284;2023-05-07T15:26:54;20.40;99.90
37460;DHT22;23318;50.966;5.284;2023-05-07T15:29:19;20.30;99.90
37460;DHT22;23318;50.966;5.284;2023-05-07T15:31:46;20.10;99.90